Watauga Observed Data For Previous 48 Hours

Caption
Day and Hour Reservoir Elevation (behind dam)* Tailwater Elevation (below dam)* Average Hourly Discharge*
11/11/2018 2 AM EST 1,953.78 1,647.26 0
11/11/2018 3 AM EST 1,953.78 1,647.15 0
11/11/2018 4 AM EST 1,953.79 1,647.12 0
11/11/2018 5 AM EST 1,953.79 1,647.12 0
11/11/2018 6 AM EST 1,953.79 1,647.27 0
11/11/2018 7 AM EST 1,953.79 1,650.37 1,432
11/11/2018 8 AM EST 1,953.79 1,650.14 1,479
11/11/2018 9 AM EST 1,953.79 1,650.13 1,490
11/11/2018 10 AM EST 1,953.78 1,650.12 1,482
11/11/2018 11 AM EST 1,953.76 1,650.11 1,477
11/11/2018 12 PM EST 1,953.75 1,650.12 1,478
11/11/2018 1 PM EST 1,953.73 1,648.16 73
11/11/2018 2 PM EST 1,953.73 1,647.83 0
11/11/2018 3 PM EST 1,953.73 1,647.56 0
11/11/2018 4 PM EST 1,953.73 1,647.32 0
11/11/2018 5 PM EST 1,953.75 1,647.17 0
11/11/2018 6 PM EST 1,953.75 1,647.33 0
11/11/2018 7 PM EST 1,953.75 1,650.14 1,451
11/11/2018 8 PM EST 1,953.75 1,650.12 1,482
11/11/2018 9 PM EST 1,953.75 1,650.11 1,482
11/11/2018 10 PM EST 1,953.73 1,650.16 1,485
11/11/2018 11 PM EST 1,953.73 1,648.75 69
11/12/2018 12 AM EST 1,953.73 1,648.42 0
11/12/2018 1 AM EST 1,953.73 1,648.13 0
11/12/2018 2 AM EST 1,953.73 1,647.88 0
11/12/2018 3 AM EST 1,953.75 1,647.62 0
11/12/2018 4 AM EST 1,953.75 1,647.40 0
11/12/2018 5 AM EST 1,953.75 1,647.21 0
11/12/2018 6 AM EST 1,953.76 1,647.13 0
11/12/2018 7 AM EST 1,953.76 1,647.32 0
11/12/2018 8 AM EST 1,953.76 1,650.13 1,445
11/12/2018 9 AM EST 1,953.76 1,650.13 1,475
11/12/2018 10 AM EST 1,953.76 1,650.11 1,480
11/12/2018 11 AM EST 1,953.75 1,650.11 1,490
11/12/2018 12 PM EST 1,953.75 1,650.12 1,489
11/12/2018 1 PM EST 1,953.75 1,650.09 1,488
11/12/2018 2 PM EST 1,953.73 1,650.10 1,488
11/12/2018 3 PM EST 1,953.73 1,647.11 71
11/12/2018 4 PM EST 1,953.73 1,647.10 0
11/12/2018 5 PM EST 1,953.78 1,647.10 0
11/12/2018 6 PM EST 1,953.81 1,647.10 0
11/12/2018 7 PM EST 1,953.81 1,647.10 0
11/12/2018 8 PM EST 1,953.82 1,647.09 0
11/12/2018 9 PM EST 1,953.84 1,647.10 0
11/12/2018 10 PM EST 1,953.85 1,647.10 0
11/12/2018 11 PM EST 1,953.87 1,647.08 0
11/13/2018 12 AM EST 1,953.91 1,647.08 0
11/13/2018 1 AM EST 1,953.91 1,647.08 0
11/13/2018 2 AM EST 1,953.97 1,647.10 0
11/13/2018 3 AM EST 1,953.97 1,647.10 0
11/13/2018 4 AM EST 1,954.00 1,647.10 0
11/13/2018 5 AM EST 1,954.03 1,647.11 0
11/13/2018 6 AM EST 1,954.06 1,647.32 0
11/13/2018 7 AM EST 1,954.08 1,649.80 1,258
11/13/2018 8 AM EST 1,954.08 1,649.80 1,260
11/13/2018 9 AM EST 1,954.09 1,649.80 1,259
11/13/2018 10 AM EST 1,954.09 1,648.26 828

Elevations are in feet above sea level. Discharges are in cubic feet per second and are reported at the end of the hour.